sensor_id;sensor_type;location;lat;lon;timestamp;P1;durP1;ratioP1;P2;durP2;ratioP2
23302;SDS011;11820;48.738;9.092;2022-12-11T00:02:04;17.83;;;14.80;;
23302;SDS011;11820;48.738;9.092;2022-12-11T00:04:29;16.80;;;13.80;;
23302;SDS011;11820;48.738;9.092;2022-12-11T00:06:55;17.03;;;13.47;;
23302;SDS011;11820;48.738;9.092;2022-12-11T00:09:21;16.43;;;12.87;;
23302;SDS011;11820;48.738;9.092;2022-12-11T00:11:46;17.10;;;13.43;;
23302;SDS011;11820;48.738;9.092;2022-12-11T00:14:12;18.30;;;14.17;;
23302;SDS011;11820;48.738;9.092;2022-12-11T00:16:38;17.40;;;13.60;;
23302;SDS011;11820;48.738;9.092;2022-12-11T00:19:04;20.90;;;14.97;;
23302;SDS011;11820;48.738;9.092;2022-12-11T00:21:30;18.60;;;13.93;;
23302;SDS011;11820;48.738;9.092;2022-12-11T00:23:56;19.87;;;14.83;;
23302;SDS011;11820;48.738;9.092;2022-12-11T00:26:21;19.60;;;15.47;;
23302;SDS011;11820;48.738;9.092;2022-12-11T00:28:47;20.23;;;14.13;;
23302;SDS011;11820;48.738;9.092;2022-12-11T00:31:17;17.70;;;13.73;;
23302;SDS011;11820;48.738;9.092;2022-12-11T00:33:45;18.23;;;14.17;;
23302;SDS011;11820;48.738;9.092;2022-12-11T00:36:13;18.80;;;14.27;;
23302;SDS011;11820;48.738;9.092;2022-12-11T00:38:40;18.33;;;13.10;;
23302;SDS011;11820;48.738;9.092;2022-12-11T00:41:06;18.60;;;13.90;;
23302;SDS011;11820;48.738;9.092;2022-12-11T00:43:32;19.20;;;14.33;;
23302;SDS011;11820;48.738;9.092;2022-12-11T00:45:57;19.53;;;14.57;;
23302;SDS011;11820;48.738;9.092;2022-12-11T00:48:22;20.03;;;14.90;;
23302;SDS011;11820;48.738;9.092;2022-12-11T00:50:48;19.80;;;14.93;;
23302;SDS011;11820;48.738;9.092;2022-12-11T00:53:13;18.47;;;14.13;;
23302;SDS011;11820;48.738;9.092;2022-12-11T00:55:39;19.33;;;13.80;;
23302;SDS011;11820;48.738;9.092;2022-12-11T00:58:06;18.77;;;13.93;;
23302;SDS011;11820;48.738;9.092;2022-12-11T01:00:32;21.43;;;15.17;;
23302;SDS011;11820;48.738;9.092;2022-12-11T01:02:58;18.97;;;14.73;;
23302;SDS011;11820;48.738;9.092;2022-12-11T01:05:23;19.57;;;14.10;;
23302;SDS011;11820;48.738;9.092;2022-12-11T01:07:49;19.97;;;14.23;;
23302;SDS011;11820;48.738;9.092;2022-12-11T01:10:14;20.57;;;14.20;;
23302;SDS011;11820;48.738;9.092;2022-12-11T01:12:49;17.23;;;14.30;;
23302;SDS011;11820;48.738;9.092;2022-12-11T01:15:21;18.40;;;13.13;;
23302;SDS011;11820;48.738;9.092;2022-12-11T01:17:51;18.93;;;14.17;;
23302;SDS011;11820;48.738;9.092;2022-12-11T01:20:17;17.97;;;12.87;;
23302;SDS011;11820;48.738;9.092;2022-12-11T01:22:43;16.67;;;12.70;;
23302;SDS011;11820;48.738;9.092;2022-12-11T01:25:09;17.67;;;13.50;;
23302;SDS011;11820;48.738;9.092;2022-12-11T01:27:35;17.00;;;11.87;;
23302;SDS011;11820;48.738;9.092;2022-12-11T01:30:02;18.70;;;14.10;;
23302;SDS011;11820;48.738;9.092;2022-12-11T01:32:29;18.87;;;15.03;;
23302;SDS011;11820;48.738;9.092;2022-12-11T01:34:54;16.83;;;13.67;;
23302;SDS011;11820;48.738;9.092;2022-12-11T01:37:20;17.10;;;13.70;;
23302;SDS011;11820;48.738;9.092;2022-12-11T01:39:45;17.90;;;12.93;;
23302;SDS011;11820;48.738;9.092;2022-12-11T01:42:14;17.27;;;12.73;;
23302;SDS011;11820;48.738;9.092;2022-12-11T01:47:07;17.77;;;13.27;;
23302;SDS011;11820;48.738;9.092;2022-12-11T01:49:32;17.47;;;13.03;;
23302;SDS011;11820;48.738;9.092;2022-12-11T01:51:58;18.53;;;13.17;;
23302;SDS011;11820;48.738;9.092;2022-12-11T01:54:30;17.57;;;13.53;;
23302;SDS011;11820;48.738;9.092;2022-12-11T01:56:57;18.07;;;13.83;;
23302;SDS011;11820;48.738;9.092;2022-12-11T01:59:28;18.00;;;13.83;;
23302;SDS011;11820;48.738;9.092;2022-12-11T02:01:57;17.67;;;13.87;;
23302;SDS011;11820;48.738;9.092;2022-12-11T02:04:27;16.23;;;13.03;;
23302;SDS011;11820;48.738;9.092;2022-12-11T02:06:53;19.50;;;14.30;;
23302;SDS011;11820;48.738;9.092;2022-12-11T02:09:21;15.43;;;12.57;;
23302;SDS011;11820;48.738;9.092;2022-12-11T02:14:35;12.80;;;10.27;;
23302;SDS011;11820;48.738;9.092;2022-12-11T02:25:12;13.53;;;9.40;;
23302;SDS011;11820;48.738;9.092;2022-12-11T02:30:53;11.00;;;8.43;;
23302;SDS011;11820;48.738;9.092;2022-12-11T02:33:25;10.47;;;8.83;;
23302;SDS011;11820;48.738;9.092;2022-12-11T02:35:58;11.60;;;9.87;;
23302;SDS011;11820;48.738;9.092;2022-12-11T02:38:30;10.13;;;9.03;;
23302;SDS011;11820;48.738;9.092;2022-12-11T02:40:58;11.20;;;9.57;;
23302;SDS011;11820;48.738;9.092;2022-12-11T02:43:26;10.37;;;9.07;;
23302;SDS011;11820;48.738;9.092;2022-12-11T02:45:55;12.33;;;8.60;;
23302;SDS011;11820;48.738;9.092;2022-12-11T02:48:23;12.60;;;9.70;;
23302;SDS011;11820;48.738;9.092;2022-12-11T02:50:49;11.30;;;9.50;;
23302;SDS011;11820;48.738;9.092;2022-12-11T02:53:18;11.23;;;9.83;;
23302;SDS011;11820;48.738;9.092;2022-12-11T02:55:48;12.63;;;9.57;;
23302;SDS011;11820;48.738;9.092;2022-12-11T02:58:17;11.63;;;9.93;;
23302;SDS011;11820;48.738;9.092;2022-12-11T03:00:46;9.67;;;8.67;;
23302;SDS011;11820;48.738;9.092;2022-12-11T03:03:12;11.17;;;9.43;;
23302;SDS011;11820;48.738;9.092;2022-12-11T03:05:38;12.30;;;9.87;;
23302;SDS011;11820;48.738;9.092;2022-12-11T03:08:04;12.23;;;9.80;;
23302;SDS011;11820;48.738;9.092;2022-12-11T03:10:30;11.67;;;9.37;;
23302;SDS011;11820;48.738;9.092;2022-12-11T03:12:55;13.00;;;9.90;;
23302;SDS011;11820;48.738;9.092;2022-12-11T03:15:33;12.17;;;10.63;;
23302;SDS011;11820;48.738;9.092;2022-12-11T03:18:17;13.60;;;10.03;;
23302;SDS011;11820;48.738;9.092;2022-12-11T03:23:48;13.47;;;11.10;;
23302;SDS011;11820;48.738;9.092;2022-12-11T03:26:18;12.33;;;10.80;;
23302;SDS011;11820;48.738;9.092;2022-12-11T03:29:03;12.30;;;10.10;;
23302;SDS011;11820;48.738;9.092;2022-12-11T03:31:39;13.37;;;11.23;;
23302;SDS011;11820;48.738;9.092;2022-12-11T03:34:13;16.47;;;12.20;;
23302;SDS011;11820;48.738;9.092;2022-12-11T03:37:03;13.50;;;11.60;;
23302;SDS011;11820;48.738;9.092;2022-12-11T03:39:32;15.53;;;12.63;;
23302;SDS011;11820;48.738;9.092;2022-12-11T03:42:01;13.87;;;12.30;;
23302;SDS011;11820;48.738;9.092;2022-12-11T03:44:30;15.00;;;11.40;;
23302;SDS011;11820;48.738;9.092;2022-12-11T03:46:58;19.20;;;13.33;;
23302;SDS011;11820;48.738;9.092;2022-12-11T03:49:26;15.10;;;12.27;;
23302;SDS011;11820;48.738;9.092;2022-12-11T03:51:55;16.27;;;13.33;;
23302;SDS011;11820;48.738;9.092;2022-12-11T03:54:23;16.97;;;12.33;;
23302;SDS011;11820;48.738;9.092;2022-12-11T03:56:50;15.50;;;12.40;;
23302;SDS011;11820;48.738;9.092;2022-12-11T03:59:20;16.67;;;13.33;;
23302;SDS011;11820;48.738;9.092;2022-12-11T04:01:45;14.53;;;12.30;;
23302;SDS011;11820;48.738;9.092;2022-12-11T04:04:10;15.47;;;12.10;;
23302;SDS011;11820;48.738;9.092;2022-12-11T04:06:35;16.40;;;12.53;;
23302;SDS011;11820;48.738;9.092;2022-12-11T04:09:01;14.63;;;12.17;;
23302;SDS011;11820;48.738;9.092;2022-12-11T04:11:27;17.23;;;13.13;;
23302;SDS011;11820;48.738;9.092;2022-12-11T04:13:58;18.73;;;13.63;;
23302;SDS011;11820;48.738;9.092;2022-12-11T04:16:42;15.37;;;12.80;;
23302;SDS011;11820;48.738;9.092;2022-12-11T04:19:07;17.40;;;13.30;;
23302;SDS011;11820;48.738;9.092;2022-12-11T04:21:52;16.43;;;13.03;;
23302;SDS011;11820;48.738;9.092;2022-12-11T04:24:36;17.43;;;12.40;;
23302;SDS011;11820;48.738;9.092;2022-12-11T04:27:01;14.33;;;11.33;;
23302;SDS011;11820;48.738;9.092;2022-12-11T04:29:26;17.00;;;13.13;;
23302;SDS011;11820;48.738;9.092;2022-12-11T04:31:52;18.40;;;14.03;;
23302;SDS011;11820;48.738;9.092;2022-12-11T04:34:17;16.77;;;12.97;;
23302;SDS011;11820;48.738;9.092;2022-12-11T04:36:43;16.60;;;12.80;;
23302;SDS011;11820;48.738;9.092;2022-12-11T04:39:08;17.90;;;13.13;;
23302;SDS011;11820;48.738;9.092;2022-12-11T04:41:33;14.77;;;12.10;;
23302;SDS011;11820;48.738;9.092;2022-12-11T04:43:59;16.17;;;13.60;;
23302;SDS011;11820;48.738;9.092;2022-12-11T04:46:25;17.00;;;12.27;;
23302;SDS011;11820;48.738;9.092;2022-12-11T04:48:51;16.13;;;11.90;;
23302;SDS011;11820;48.738;9.092;2022-12-11T04:51:17;15.67;;;11.87;;
23302;SDS011;11820;48.738;9.092;2022-12-11T04:53:43;15.90;;;12.13;;
23302;SDS011;11820;48.738;9.092;2022-12-11T04:56:09;15.57;;;11.67;;
23302;SDS011;11820;48.738;9.092;2022-12-11T04:58:38;14.43;;;11.77;;
23302;SDS011;11820;48.738;9.092;2022-12-11T05:01:15;15.83;;;12.87;;
23302;SDS011;11820;48.738;9.092;2022-12-11T05:03:42;16.53;;;12.40;;
23302;SDS011;11820;48.738;9.092;2022-12-11T05:06:08;15.53;;;11.30;;
23302;SDS011;11820;48.738;9.092;2022-12-11T05:08:35;16.63;;;11.97;;
23302;SDS011;11820;48.738;9.092;2022-12-11T05:11:02;15.17;;;12.17;;
23302;SDS011;11820;48.738;9.092;2022-12-11T05:13:30;17.70;;;13.27;;
23302;SDS011;11820;48.738;9.092;2022-12-11T05:15:55;15.50;;;12.00;;
23302;SDS011;11820;48.738;9.092;2022-12-11T05:18:21;15.43;;;11.93;;
23302;SDS011;11820;48.738;9.092;2022-12-11T05:20:54;14.97;;;12.23;;
23302;SDS011;11820;48.738;9.092;2022-12-11T05:23:23;15.47;;;12.03;;
23302;SDS011;11820;48.738;9.092;2022-12-11T05:25:52;17.77;;;10.93;;
23302;SDS011;11820;48.738;9.092;2022-12-11T05:28:21;14.13;;;10.70;;
23302;SDS011;11820;48.738;9.092;2022-12-11T05:30:53;14.67;;;10.90;;
23302;SDS011;11820;48.738;9.092;2022-12-11T05:33:23;14.03;;;10.73;;
23302;SDS011;11820;48.738;9.092;2022-12-11T05:35:49;14.10;;;10.80;;
23302;SDS011;11820;48.738;9.092;2022-12-11T05:38:16;15.50;;;11.47;;
23302;SDS011;11820;48.738;9.092;2022-12-11T05:40:41;16.20;;;10.57;;
23302;SDS011;11820;48.738;9.092;2022-12-11T05:43:06;14.43;;;10.80;;
23302;SDS011;11820;48.738;9.092;2022-12-11T05:45:32;15.77;;;11.00;;
23302;SDS011;11820;48.738;9.092;2022-12-11T05:47:58;16.00;;;11.67;;
23302;SDS011;11820;48.738;9.092;2022-12-11T05:50:24;15.60;;;10.13;;
23302;SDS011;11820;48.738;9.092;2022-12-11T05:52:49;19.53;;;11.43;;
23302;SDS011;11820;48.738;9.092;2022-12-11T05:55:14;16.63;;;12.20;;
23302;SDS011;11820;48.738;9.092;2022-12-11T05:57:39;16.90;;;12.53;;
23302;SDS011;11820;48.738;9.092;2022-12-11T06:00:05;16.87;;;12.07;;
23302;SDS011;11820;48.738;9.092;2022-12-11T06:02:33;14.10;;;11.90;;
23302;SDS011;11820;48.738;9.092;2022-12-11T06:04:59;16.53;;;11.87;;
23302;SDS011;11820;48.738;9.092;2022-12-11T06:07:24;16.73;;;12.63;;
23302;SDS011;11820;48.738;9.092;2022-12-11T06:09:49;16.57;;;11.70;;
23302;SDS011;11820;48.738;9.092;2022-12-11T06:12:15;17.07;;;12.10;;
23302;SDS011;11820;48.738;9.092;2022-12-11T06:14:40;17.67;;;11.73;;
23302;SDS011;11820;48.738;9.092;2022-12-11T06:17:05;15.30;;;10.77;;
23302;SDS011;11820;48.738;9.092;2022-12-11T06:19:31;17.37;;;11.97;;
23302;SDS011;11820;48.738;9.092;2022-12-11T06:21:56;14.93;;;10.87;;
23302;SDS011;11820;48.738;9.092;2022-12-11T06:24:22;15.17;;;11.50;;
23302;SDS011;11820;48.738;9.092;2022-12-11T06:26:47;19.27;;;11.97;;
23302;SDS011;11820;48.738;9.092;2022-12-11T06:29:12;15.67;;;11.50;;
23302;SDS011;11820;48.738;9.092;2022-12-11T06:31:37;15.77;;;11.30;;
23302;SDS011;11820;48.738;9.092;2022-12-11T06:34:03;14.40;;;10.83;;
23302;SDS011;11820;48.738;9.092;2022-12-11T06:36:28;16.53;;;11.07;;
23302;SDS011;11820;48.738;9.092;2022-12-11T06:38:53;14.63;;;10.97;;
23302;SDS011;11820;48.738;9.092;2022-12-11T06:41:19;15.33;;;12.00;;
23302;SDS011;11820;48.738;9.092;2022-12-11T06:43:44;16.23;;;11.33;;
23302;SDS011;11820;48.738;9.092;2022-12-11T06:46:14;17.10;;;11.67;;
23302;SDS011;11820;48.738;9.092;2022-12-11T06:48:42;14.20;;;10.83;;
23302;SDS011;11820;48.738;9.092;2022-12-11T06:51:08;17.40;;;11.77;;
23302;SDS011;11820;48.738;9.092;2022-12-11T06:53:37;16.93;;;11.93;;
23302;SDS011;11820;48.738;9.092;2022-12-11T06:56:03;15.27;;;12.00;;
23302;SDS011;11820;48.738;9.092;2022-12-11T06:58:31;14.83;;;11.17;;
23302;SDS011;11820;48.738;9.092;2022-12-11T07:00:58;16.60;;;12.13;;
23302;SDS011;11820;48.738;9.092;2022-12-11T07:03:23;15.00;;;11.17;;
23302;SDS011;11820;48.738;9.092;2022-12-11T07:05:49;16.83;;;11.93;;
23302;SDS011;11820;48.738;9.092;2022-12-11T07:08:14;17.97;;;12.73;;
23302;SDS011;11820;48.738;9.092;2022-12-11T07:10:40;17.03;;;12.17;;
23302;SDS011;11820;48.738;9.092;2022-12-11T07:13:06;15.47;;;11.83;;
23302;SDS011;11820;48.738;9.092;2022-12-11T07:15:31;14.33;;;10.87;;
23302;SDS011;11820;48.738;9.092;2022-12-11T07:17:57;16.77;;;12.57;;
23302;SDS011;11820;48.738;9.092;2022-12-11T07:20:22;14.83;;;11.80;;
23302;SDS011;11820;48.738;9.092;2022-12-11T07:22:47;16.13;;;11.33;;
23302;SDS011;11820;48.738;9.092;2022-12-11T07:25:13;15.53;;;12.50;;
23302;SDS011;11820;48.738;9.092;2022-12-11T07:27:38;17.37;;;12.63;;
23302;SDS011;11820;48.738;9.092;2022-12-11T07:30:04;14.77;;;11.50;;
23302;SDS011;11820;48.738;9.092;2022-12-11T07:32:29;19.40;;;14.20;;
23302;SDS011;11820;48.738;9.092;2022-12-11T07:34:55;17.87;;;12.30;;
23302;SDS011;11820;48.738;9.092;2022-12-11T07:37:20;20.70;;;13.73;;
23302;SDS011;11820;48.738;9.092;2022-12-11T07:39:45;20.53;;;13.57;;
23302;SDS011;11820;48.738;9.092;2022-12-11T07:42:12;18.80;;;13.53;;
23302;SDS011;11820;48.738;9.092;2022-12-11T07:44:38;18.23;;;13.50;;
23302;SDS011;11820;48.738;9.092;2022-12-11T07:47:03;17.93;;;13.73;;
23302;SDS011;11820;48.738;9.092;2022-12-11T07:49:28;17.17;;;12.77;;
23302;SDS011;11820;48.738;9.092;2022-12-11T07:51:54;18.40;;;13.17;;
23302;SDS011;11820;48.738;9.092;2022-12-11T07:54:19;16.17;;;11.47;;
23302;SDS011;11820;48.738;9.092;2022-12-11T07:56:46;16.50;;;11.40;;
23302;SDS011;11820;48.738;9.092;2022-12-11T07:59:12;16.63;;;12.53;;
23302;SDS011;11820;48.738;9.092;2022-12-11T08:01:38;15.67;;;11.53;;
23302;SDS011;11820;48.738;9.092;2022-12-11T08:04:05;15.83;;;12.57;;
23302;SDS011;11820;48.738;9.092;2022-12-11T08:06:32;15.73;;;11.37;;
23302;SDS011;11820;48.738;9.092;2022-12-11T08:09:00;18.87;;;13.50;;
23302;SDS011;11820;48.738;9.092;2022-12-11T08:11:27;15.80;;;11.80;;
23302;SDS011;11820;48.738;9.092;2022-12-11T08:13:52;14.40;;;11.17;;
23302;SDS011;11820;48.738;9.092;2022-12-11T08:16:19;17.00;;;11.93;;
23302;SDS011;11820;48.738;9.092;2022-12-11T08:18:45;15.43;;;11.50;;
23302;SDS011;11820;48.738;9.092;2022-12-11T08:21:13;18.17;;;12.47;;
23302;SDS011;11820;48.738;9.092;2022-12-11T08:23:43;16.33;;;12.57;;
23302;SDS011;11820;48.738;9.092;2022-12-11T08:26:13;15.80;;;11.53;;
23302;SDS011;11820;48.738;9.092;2022-12-11T08:28:40;17.40;;;12.70;;
23302;SDS011;11820;48.738;9.092;2022-12-11T08:31:06;18.20;;;12.50;;
23302;SDS011;11820;48.738;9.092;2022-12-11T08:33:34;17.23;;;12.63;;
23302;SDS011;11820;48.738;9.092;2022-12-11T08:36:04;18.20;;;13.03;;
23302;SDS011;11820;48.738;9.092;2022-12-11T08:38:31;17.80;;;12.23;;
23302;SDS011;11820;48.738;9.092;2022-12-11T08:40:57;17.00;;;12.07;;
23302;SDS011;11820;48.738;9.092;2022-12-11T08:43:23;15.03;;;12.00;;
23302;SDS011;11820;48.738;9.092;2022-12-11T08:45:48;14.93;;;11.73;;
23302;SDS011;11820;48.738;9.092;2022-12-11T08:48:13;14.07;;;11.50;;
23302;SDS011;11820;48.738;9.092;2022-12-11T08:50:39;14.77;;;12.07;;
23302;SDS011;11820;48.738;9.092;2022-12-11T08:53:04;18.90;;;13.30;;
23302;SDS011;11820;48.738;9.092;2022-12-11T08:55:30;16.87;;;12.20;;
23302;SDS011;11820;48.738;9.092;2022-12-11T08:57:56;16.40;;;11.80;;
23302;SDS011;11820;48.738;9.092;2022-12-11T09:00:21;15.60;;;11.53;;
23302;SDS011;11820;48.738;9.092;2022-12-11T09:02:47;15.30;;;12.03;;
23302;SDS011;11820;48.738;9.092;2022-12-11T09:05:12;18.17;;;12.83;;
23302;SDS011;11820;48.738;9.092;2022-12-11T09:07:37;18.53;;;13.47;;
23302;SDS011;11820;48.738;9.092;2022-12-11T09:10:04;18.13;;;13.27;;
23302;SDS011;11820;48.738;9.092;2022-12-11T09:12:31;17.30;;;11.93;;
23302;SDS011;11820;48.738;9.092;2022-12-11T09:14:57;15.27;;;11.67;;
23302;SDS011;11820;48.738;9.092;2022-12-11T09:17:22;18.07;;;12.17;;
23302;SDS011;11820;48.738;9.092;2022-12-11T09:19:47;15.33;;;11.87;;
23302;SDS011;11820;48.738;9.092;2022-12-11T09:22:13;17.57;;;13.00;;
23302;SDS011;11820;48.738;9.092;2022-12-11T09:24:38;17.73;;;12.67;;
23302;SDS011;11820;48.738;9.092;2022-12-11T09:27:04;18.80;;;13.30;;
23302;SDS011;11820;48.738;9.092;2022-12-11T09:29:30;16.07;;;11.80;;
23302;SDS011;11820;48.738;9.092;2022-12-11T09:31:55;18.67;;;12.13;;
23302;SDS011;11820;48.738;9.092;2022-12-11T09:34:20;16.70;;;11.83;;
23302;SDS011;11820;48.738;9.092;2022-12-11T09:36:46;18.43;;;12.50;;
23302;SDS011;11820;48.738;9.092;2022-12-11T09:39:12;14.83;;;11.63;;
23302;SDS011;11820;48.738;9.092;2022-12-11T09:41:45;16.07;;;10.73;;
23302;SDS011;11820;48.738;9.092;2022-12-11T09:44:30;13.90;;;11.40;;
23302;SDS011;11820;48.738;9.092;2022-12-11T09:47:07;17.47;;;12.07;;
23302;SDS011;11820;48.738;9.092;2022-12-11T09:49:41;16.23;;;10.93;;
23302;SDS011;11820;48.738;9.092;2022-12-11T09:52:10;16.17;;;11.10;;
23302;SDS011;11820;48.738;9.092;2022-12-11T09:54:42;14.40;;;10.93;;
23302;SDS011;11820;48.738;9.092;2022-12-11T10:00:11;15.67;;;10.83;;
23302;SDS011;11820;48.738;9.092;2022-12-11T10:08:32;13.70;;;10.33;;
23302;SDS011;11820;48.738;9.092;2022-12-11T10:19:16;13.40;;;10.90;;
23302;SDS011;11820;48.738;9.092;2022-12-11T10:21:46;14.20;;;10.40;;
23302;SDS011;11820;48.738;9.092;2022-12-11T10:24:17;15.50;;;10.90;;
23302;SDS011;11820;48.738;9.092;2022-12-11T10:26:46;15.03;;;10.70;;
23302;SDS011;11820;48.738;9.092;2022-12-11T10:29:12;15.67;;;10.80;;
23302;SDS011;11820;48.738;9.092;2022-12-11T10:34:20;13.83;;;10.10;;
23302;SDS011;11820;48.738;9.092;2022-12-11T10:36:49;11.67;;;9.40;;
23302;SDS011;11820;48.738;9.092;2022-12-11T10:39:16;13.53;;;10.00;;
23302;SDS011;11820;48.738;9.092;2022-12-11T10:41:46;11.17;;;8.83;;
23302;SDS011;11820;48.738;9.092;2022-12-11T10:44:18;14.53;;;10.30;;
23302;SDS011;11820;48.738;9.092;2022-12-11T10:47:09;14.37;;;10.13;;
23302;SDS011;11820;48.738;9.092;2022-12-11T10:49:38;12.73;;;10.00;;
23302;SDS011;11820;48.738;9.092;2022-12-11T10:52:09;14.73;;;10.33;;
23302;SDS011;11820;48.738;9.092;2022-12-11T10:54:40;15.47;;;10.30;;
23302;SDS011;11820;48.738;9.092;2022-12-11T10:57:08;13.63;;;10.60;;
23302;SDS011;11820;48.738;9.092;2022-12-11T11:02:28;13.37;;;9.90;;
23302;SDS011;11820;48.738;9.092;2022-12-11T11:04:57;14.37;;;10.17;;
23302;SDS011;11820;48.738;9.092;2022-12-11T11:07:28;12.00;;;8.97;;
23302;SDS011;11820;48.738;9.092;2022-12-11T11:12:42;14.10;;;10.27;;
23302;SDS011;11820;48.738;9.092;2022-12-11T11:15:17;12.53;;;10.03;;
23302;SDS011;11820;48.738;9.092;2022-12-11T11:20:20;12.97;;;10.07;;
23302;SDS011;11820;48.738;9.092;2022-12-11T11:22:51;13.83;;;9.07;;
23302;SDS011;11820;48.738;9.092;2022-12-11T11:25:26;13.10;;;10.40;;
23302;SDS011;11820;48.738;9.092;2022-12-11T11:27:56;13.83;;;9.53;;
23302;SDS011;11820;48.738;9.092;2022-12-11T11:30:30;12.23;;;9.40;;
23302;SDS011;11820;48.738;9.092;2022-12-11T11:33:01;12.27;;;9.33;;
23302;SDS011;11820;48.738;9.092;2022-12-11T11:35:30;14.90;;;10.90;;
23302;SDS011;11820;48.738;9.092;2022-12-11T11:38:03;12.40;;;9.60;;
23302;SDS011;11820;48.738;9.092;2022-12-11T11:40:45;13.63;;;9.87;;
23302;SDS011;11820;48.738;9.092;2022-12-11T11:51:50;12.33;;;8.97;;
23302;SDS011;11820;48.738;9.092;2022-12-11T11:54:29;13.67;;;9.23;;
23302;SDS011;11820;48.738;9.092;2022-12-11T11:57:00;12.13;;;8.50;;
23302;SDS011;11820;48.738;9.092;2022-12-11T11:59:38;10.70;;;8.60;;
23302;SDS011;11820;48.738;9.092;2022-12-11T12:02:16;14.17;;;9.30;;
23302;SDS011;11820;48.738;9.092;2022-12-11T12:04:43;13.67;;;9.03;;
23302;SDS011;11820;48.738;9.092;2022-12-11T12:13:00;10.33;;;8.23;;
23302;SDS011;11820;48.738;9.092;2022-12-11T12:18:34;11.23;;;8.80;;
23302;SDS011;11820;48.738;9.092;2022-12-11T12:36:56;11.93;;;8.23;;
23302;SDS011;11820;48.738;9.092;2022-12-11T12:45:22;10.27;;;7.30;;
23302;SDS011;11820;48.738;9.092;2022-12-11T12:47:52;10.60;;;7.60;;
23302;SDS011;11820;48.738;9.092;2022-12-11T12:50:19;10.60;;;8.03;;
23302;SDS011;11820;48.738;9.092;2022-12-11T12:52:46;10.70;;;8.63;;
23302;SDS011;11820;48.738;9.092;2022-12-11T12:55:26;13.37;;;9.07;;
23302;SDS011;11820;48.738;9.092;2022-12-11T12:57:59;10.90;;;8.40;;
23302;SDS011;11820;48.738;9.092;2022-12-11T13:00:37;11.80;;;8.90;;
23302;SDS011;11820;48.738;9.092;2022-12-11T13:05:38;10.23;;;7.47;;
23302;SDS011;11820;48.738;9.092;2022-12-11T13:08:06;11.10;;;7.33;;
23302;SDS011;11820;48.738;9.092;2022-12-11T13:10:33;12.13;;;8.37;;
23302;SDS011;11820;48.738;9.092;2022-12-11T13:13:00;11.43;;;7.47;;
23302;SDS011;11820;48.738;9.092;2022-12-11T13:15:29;8.77;;;7.27;;
23302;SDS011;11820;48.738;9.092;2022-12-11T13:17:58;9.37;;;7.13;;
23302;SDS011;11820;48.738;9.092;2022-12-11T13:20:25;8.83;;;6.50;;
23302;SDS011;11820;48.738;9.092;2022-12-11T13:25:31;9.93;;;8.05;;
23302;SDS011;11820;48.738;9.092;2022-12-11T13:28:04;11.60;;;7.50;;
23302;SDS011;11820;48.738;9.092;2022-12-11T13:30:31;13.00;;;9.63;;
23302;SDS011;11820;48.738;9.092;2022-12-11T13:35:39;13.37;;;9.97;;
23302;SDS011;11820;48.738;9.092;2022-12-11T13:38:05;16.23;;;10.83;;
23302;SDS011;11820;48.738;9.092;2022-12-11T13:40:39;14.77;;;11.03;;
23302;SDS011;11820;48.738;9.092;2022-12-11T13:43:08;16.77;;;11.90;;
23302;SDS011;11820;48.738;9.092;2022-12-11T13:45:49;18.63;;;12.07;;
23302;SDS011;11820;48.738;9.092;2022-12-11T13:51:00;19.90;;;12.90;;
23302;SDS011;11820;48.738;9.092;2022-12-11T13:53:27;17.30;;;12.23;;
23302;SDS011;11820;48.738;9.092;2022-12-11T13:56:06;18.80;;;14.07;;
23302;SDS011;11820;48.738;9.092;2022-12-11T13:58:38;25.47;;;16.23;;
23302;SDS011;11820;48.738;9.092;2022-12-11T14:01:15;19.67;;;14.20;;
23302;SDS011;11820;48.738;9.092;2022-12-11T14:03:55;20.63;;;15.57;;
23302;SDS011;11820;48.738;9.092;2022-12-11T14:06:23;26.03;;;16.37;;
23302;SDS011;11820;48.738;9.092;2022-12-11T14:08:52;23.70;;;15.87;;
23302;SDS011;11820;48.738;9.092;2022-12-11T14:11:21;19.90;;;15.47;;
23302;SDS011;11820;48.738;9.092;2022-12-11T14:13:51;22.67;;;15.40;;
23302;SDS011;11820;48.738;9.092;2022-12-11T14:16:20;21.93;;;16.30;;
23302;SDS011;11820;48.738;9.092;2022-12-11T14:18:48;25.23;;;16.23;;
23302;SDS011;11820;48.738;9.092;2022-12-11T14:21:16;20.07;;;15.70;;
23302;SDS011;11820;48.738;9.092;2022-12-11T14:23:49;23.03;;;16.53;;
23302;SDS011;11820;48.738;9.092;2022-12-11T14:26:17;22.07;;;17.53;;
23302;SDS011;11820;48.738;9.092;2022-12-11T14:28:45;22.83;;;17.17;;
23302;SDS011;11820;48.738;9.092;2022-12-11T14:31:12;22.73;;;16.93;;
23302;SDS011;11820;48.738;9.092;2022-12-11T14:33:53;24.43;;;17.67;;
23302;SDS011;11820;48.738;9.092;2022-12-11T14:36:23;22.37;;;17.33;;
23302;SDS011;11820;48.738;9.092;2022-12-11T14:38:51;20.50;;;16.13;;
23302;SDS011;11820;48.738;9.092;2022-12-11T14:41:27;22.57;;;17.17;;
23302;SDS011;11820;48.738;9.092;2022-12-11T14:44:06;25.03;;;18.80;;
23302;SDS011;11820;48.738;9.092;2022-12-11T14:46:37;23.23;;;16.57;;
23302;SDS011;11820;48.738;9.092;2022-12-11T14:49:15;23.53;;;16.87;;
23302;SDS011;11820;48.738;9.092;2022-12-11T14:51:53;23.97;;;17.20;;
23302;SDS011;11820;48.738;9.092;2022-12-11T14:57:04;25.47;;;18.17;;
23302;SDS011;11820;48.738;9.092;2022-12-11T14:59:39;26.80;;;18.97;;
23302;SDS011;11820;48.738;9.092;2022-12-11T15:07:37;23.73;;;18.20;;
23302;SDS011;11820;48.738;9.092;2022-12-11T15:10:03;26.20;;;18.47;;
23302;SDS011;11820;48.738;9.092;2022-12-11T15:12:29;27.70;;;17.50;;
23302;SDS011;11820;48.738;9.092;2022-12-11T15:14:59;25.70;;;17.90;;
23302;SDS011;11820;48.738;9.092;2022-12-11T15:17:29;25.87;;;17.97;;
23302;SDS011;11820;48.738;9.092;2022-12-11T15:19:57;24.50;;;18.07;;
23302;SDS011;11820;48.738;9.092;2022-12-11T15:22:33;23.80;;;17.57;;
23302;SDS011;11820;48.738;9.092;2022-12-11T15:24:59;26.50;;;17.77;;
23302;SDS011;11820;48.738;9.092;2022-12-11T15:27:32;23.57;;;17.23;;
23302;SDS011;11820;48.738;9.092;2022-12-11T15:30:02;28.67;;;18.43;;
23302;SDS011;11820;48.738;9.092;2022-12-11T15:32:59;25.57;;;18.33;;
23302;SDS011;11820;48.738;9.092;2022-12-11T15:35:28;25.47;;;18.33;;
23302;SDS011;11820;48.738;9.092;2022-12-11T15:37:54;25.90;;;17.80;;
23302;SDS011;11820;48.738;9.092;2022-12-11T15:40:21;25.85;;;21.08;;
23302;SDS011;11820;48.738;9.092;2022-12-11T15:42:46;26.13;;;19.20;;
23302;SDS011;11820;48.738;9.092;2022-12-11T15:45:16;26.87;;;18.00;;
23302;SDS011;11820;48.738;9.092;2022-12-11T15:47:44;26.13;;;18.43;;
23302;SDS011;11820;48.738;9.092;2022-12-11T15:52:42;26.63;;;18.90;;
23302;SDS011;11820;48.738;9.092;2022-12-11T15:55:08;25.57;;;18.53;;
23302;SDS011;11820;48.738;9.092;2022-12-11T15:57:35;30.80;;;19.73;;
23302;SDS011;11820;48.738;9.092;2022-12-11T16:00:01;26.00;;;18.47;;
23302;SDS011;11820;48.738;9.092;2022-12-11T16:02:28;26.60;;;18.10;;
23302;SDS011;11820;48.738;9.092;2022-12-11T16:04:53;26.30;;;17.60;;
23302;SDS011;11820;48.738;9.092;2022-12-11T16:07:20;28.70;;;18.33;;
23302;SDS011;11820;48.738;9.092;2022-12-11T16:09:47;25.83;;;18.43;;
23302;SDS011;11820;48.738;9.092;2022-12-11T16:12:13;25.57;;;18.80;;
23302;SDS011;11820;48.738;9.092;2022-12-11T16:14:43;29.20;;;19.37;;
23302;SDS011;11820;48.738;9.092;2022-12-11T16:17:09;26.80;;;17.60;;
23302;SDS011;11820;48.738;9.092;2022-12-11T16:19:37;28.30;;;19.80;;